首页
METAR-TAF:

METAR-TAF

机场 :

Watertown, 紐約州, 美国

纬度: 43-59-31N, 经度: 076-01-18W, 海拔: 99米

当前天气观测

该预报发布于19分钟前的08:56 UTC
风速5节,风向西转西北
温度 -14°C
湿度 72%
气压 1025 hPa
能見度: 16.1公里
天空无云

METAR: KART 130856Z AUTO 29005KT 10SM CLR M14/M18 A3026 RMK AO2 SLP257 T11441183 51016

时间: 04:15 (09:15 UTC)

预报

该预报发布于3小时和40分钟前的05:35 UTC
预报有效从13日的 06点(UTC)到 14日的 06点(UTC)
风速6节,风向西转西北
能見度: 10公里
多云层高于6000英尺
从 13日的 1300点(UTC)
风速4节,风向西
能見度: 10公里
多云层高于12000英尺
从 13日的 2300点(UTC)
风速4节,风向
能見度: 10公里
多云层高于10000英尺
从 14日的 0300点(UTC)
风速6节,风向南转南东
能見度: 10公里
阴天层高于6000英尺

TAF: KART 130535Z 1306/1406 29006KT P6SM BKN060 FM131300 26004KT P6SM BKN120 FM132300 17004KT P6SM BKN100 FM140300 16006KT P6SM OVC060

超过4000个机场的气象观测和天气预报(METAR&TAF报告)。

可查询的气象台以黄色和红色小点在地图上表示。

将鼠标移到小点上方,可查看气象台名称。

然后点击查看天气观测和预报。

如需切换地图:点击带黑十字的绿色按钮放大地图;点击带横线的绿色按钮缩小地图;或者点击绿色箭头查看邻近地区的地图。


METAR-TAF: